createdAt,value
2023-04-26T00:01:58.810Z,69.56
2023-04-26T00:04:25.900Z,69.55
2023-04-26T00:06:52.832Z,69.45
2023-04-26T00:09:19.705Z,69.17
2023-04-26T00:11:46.804Z,69.05
2023-04-26T00:14:14.094Z,69.17
2023-04-26T00:16:40.950Z,69.37
2023-04-26T00:19:07.717Z,69.73
2023-04-26T00:21:34.492Z,69.66
2023-04-26T00:24:01.255Z,69.68
2023-04-26T00:26:28.002Z,69.82
2023-04-26T00:28:55.000Z,70.12
2023-04-26T00:31:21.892Z,69.95
2023-04-26T00:33:48.753Z,69.86
2023-04-26T00:36:19.283Z,69.88
2023-04-26T00:38:46.784Z,70.04
2023-04-26T00:41:14.249Z,69.55
2023-04-26T00:43:41.495Z,69.64
2023-04-26T00:46:09.798Z,69.71
2023-04-26T00:48:37.535Z,69.62
2023-04-26T00:51:05.843Z,69.67
2023-04-26T00:53:34.350Z,69.65
2023-04-26T00:56:02.244Z,70.15
2023-04-26T00:58:30.056Z,70.34
2023-04-26T01:00:56.967Z,70.13
2023-04-26T01:03:24.296Z,70.33
2023-04-26T01:05:51.286Z,70.10
2023-04-26T01:08:21.068Z,70.30
2023-04-26T01:10:49.105Z,70.59
2023-04-26T01:13:17.146Z,70.83
2023-04-26T01:15:46.302Z,70.69
2023-04-26T01:18:16.209Z,70.58
2023-04-26T01:20:43.563Z,70.37
2023-04-26T01:23:11.765Z,70.28
2023-04-26T01:25:39.287Z,70.16
2023-04-26T01:28:06.299Z,70.25
2023-04-26T01:30:33.150Z,70.25
2023-04-26T01:33:03.203Z,70.26
2023-04-26T01:35:30.075Z,70.44
2023-04-26T01:37:56.904Z,70.29
2023-04-26T01:40:23.658Z,70.22
2023-04-26T01:42:50.444Z,70.31
2023-04-26T01:45:17.583Z,70.29
2023-04-26T01:48:03.022Z,70.35
2023-04-26T01:50:32.146Z,70.18
2023-04-26T01:52:58.872Z,69.84
2023-04-26T01:55:25.673Z,69.89
2023-04-26T01:57:52.499Z,69.93
2023-04-26T02:00:20.384Z,70.02
2023-04-26T02:02:49.406Z,70.24
2023-04-26T02:05:16.283Z,70.12
2023-04-26T02:07:43.097Z,70.17
2023-04-26T02:10:10.043Z,70.14
2023-04-26T02:12:36.916Z,69.85
2023-04-26T02:15:03.915Z,69.83
2023-04-26T02:17:30.798Z,69.90
2023-04-26T02:19:58.554Z,69.71
2023-04-26T02:22:33.156Z,69.94
2023-04-26T02:24:59.949Z,70.00
2023-04-26T02:27:27.905Z,70.18
2023-04-26T02:29:54.804Z,70.96
2023-04-26T02:32:21.745Z,69.94
2023-04-26T02:34:48.604Z,69.51
2023-04-26T02:37:15.397Z,69.59
2023-04-26T02:39:42.153Z,69.05
2023-04-26T02:42:13.022Z,69.11
2023-04-26T02:44:40.113Z,69.06
2023-04-26T02:47:07.972Z,69.09
2023-04-26T02:49:34.817Z,69.07
2023-04-26T02:52:01.697Z,68.81
2023-04-26T02:54:29.879Z,68.89
2023-04-26T02:56:58.137Z,69.42
2023-04-26T02:59:25.112Z,69.47
2023-04-26T03:01:51.944Z,69.69
2023-04-26T03:04:18.914Z,69.72
2023-04-26T03:06:45.771Z,69.72
2023-04-26T03:09:12.703Z,69.61
2023-04-26T03:11:39.818Z,69.31
2023-04-26T03:14:06.618Z,69.26
2023-04-26T03:16:41.505Z,69.20
2023-04-26T03:19:08.551Z,68.93
2023-04-26T03:21:36.255Z,68.74
2023-04-26T03:24:04.336Z,68.75
2023-04-26T03:26:31.160Z,68.83
2023-04-26T03:28:57.991Z,68.80
2023-04-26T03:31:25.083Z,68.74
2023-04-26T03:33:52.106Z,68.81
2023-04-26T03:36:19.852Z,69.25
2023-04-26T03:38:46.678Z,69.17
2023-04-26T03:41:14.801Z,69.44
2023-04-26T03:43:41.591Z,69.17
2023-04-26T03:46:08.493Z,69.31
2023-04-26T03:48:35.300Z,69.26
2023-04-26T03:51:03.060Z,69.16
2023-04-26T03:53:29.817Z,69.09
2023-04-26T03:55:56.829Z,68.99
2023-04-26T03:58:26.047Z,69.12
2023-04-26T04:00:56.177Z,69.20
2023-04-26T04:03:23.407Z,69.32
2023-04-26T04:05:51.848Z,69.61
2023-04-26T04:08:18.556Z,69.82
2023-04-26T04:10:45.683Z,69.77
2023-04-26T04:13:12.518Z,69.89
2023-04-26T04:15:39.630Z,69.93
2023-04-26T04:18:06.457Z,69.70
2023-04-26T04:20:33.227Z,69.71
2023-04-26T04:23:02.178Z,69.83
2023-04-26T04:25:29.404Z,69.69
2023-04-26T04:27:59.852Z,69.49
2023-04-26T04:30:26.624Z,69.28
2023-04-26T04:32:54.279Z,69.59
2023-04-26T04:35:23.161Z,69.08
2023-04-26T04:37:50.256Z,69.13
2023-04-26T04:40:17.118Z,68.95
2023-04-26T04:42:46.738Z,68.83
2023-04-26T04:45:15.132Z,68.84
2023-04-26T04:47:42.630Z,68.67
2023-04-26T04:50:10.287Z,68.57
2023-04-26T04:52:37.746Z,68.46
2023-04-26T04:55:04.983Z,68.53
2023-04-26T04:57:33.519Z,68.42
2023-04-26T05:00:10.021Z,68.32
2023-04-26T05:02:42.396Z,68.22
2023-04-26T05:05:11.129Z,68.27
2023-04-26T05:07:38.031Z,68.14
2023-04-26T05:10:05.916Z,70.69
2023-04-26T05:12:33.703Z,69.40
2023-04-26T05:15:01.238Z,69.19
2023-04-26T05:17:28.071Z,70.14
2023-04-26T05:19:55.206Z,68.36
2023-04-26T05:22:22.388Z,68.00
2023-04-26T05:24:50.259Z,69.07
2023-04-26T05:27:17.709Z,67.87
2023-04-26T05:30:08.421Z,67.80
2023-04-26T05:32:47.384Z,67.42
2023-04-26T05:35:30.984Z,67.72
2023-04-26T05:37:57.746Z,67.40
2023-04-26T05:40:24.668Z,67.81
2023-04-26T05:42:51.463Z,67.72
2023-04-26T05:45:18.540Z,67.64
2023-04-26T05:47:47.563Z,67.42
2023-04-26T05:50:14.494Z,67.29
2023-04-26T05:52:41.487Z,67.35
2023-04-26T05:55:09.044Z,67.15
2023-04-26T05:57:36.277Z,67.02
2023-04-26T06:00:05.638Z,66.80
2023-04-26T06:02:40.868Z,67.03
2023-04-26T06:05:13.418Z,66.42
2023-04-26T06:07:41.320Z,66.29
2023-04-26T06:10:08.423Z,66.34
2023-04-26T06:12:35.397Z,66.27
2023-04-26T06:15:02.358Z,66.37
2023-04-26T06:17:31.040Z,66.41
2023-04-26T06:19:57.791Z,65.97
2023-04-26T06:22:24.497Z,65.78
2023-04-26T06:24:51.370Z,65.36
2023-04-26T06:27:18.399Z,65.42
2023-04-26T06:29:47.934Z,65.10
2023-04-26T06:32:15.975Z,64.92
2023-04-26T06:34:45.515Z,64.56
2023-04-26T06:37:12.442Z,64.30
2023-04-26T06:39:42.282Z,64.13
2023-04-26T06:42:09.286Z,64.22
2023-04-26T06:45:08.984Z,63.54
2023-04-26T06:47:36.311Z,63.48
2023-04-26T06:50:04.882Z,63.17
2023-04-26T06:52:31.668Z,63.01
2023-04-26T06:55:02.385Z,62.99
2023-04-26T06:57:29.180Z,63.56
2023-04-26T06:59:55.975Z,62.82
2023-04-26T07:02:24.558Z,62.69
2023-04-26T07:04:52.288Z,62.79
2023-04-26T07:07:19.194Z,62.79
2023-04-26T07:09:46.297Z,62.20
2023-04-26T07:12:13.932Z,62.16
2023-04-26T07:14:41.518Z,61.73
2023-04-26T07:17:08.325Z,61.44
2023-04-26T07:19:35.387Z,61.53
2023-04-26T07:22:02.534Z,61.88
2023-04-26T07:24:29.287Z,61.75
2023-04-26T07:26:56.881Z,61.80
2023-04-26T07:29:23.869Z,61.41
2023-04-26T07:31:50.664Z,61.38
2023-04-26T07:34:17.604Z,61.34
2023-04-26T07:36:44.356Z,61.57
2023-04-26T07:39:11.878Z,61.34
2023-04-26T07:41:38.696Z,61.31
2023-04-26T07:44:05.510Z,61.07
2023-04-26T07:46:34.378Z,60.75
2023-04-26T07:49:01.804Z,60.73
2023-04-26T07:51:28.704Z,60.48
2023-04-26T07:53:56.189Z,59.94
2023-04-26T07:56:26.383Z,59.59
2023-04-26T07:58:53.361Z,59.99
2023-04-26T08:01:20.153Z,60.16
2023-04-26T08:03:48.976Z,60.68
2023-04-26T08:06:16.813Z,60.98
2023-04-26T08:08:49.191Z,60.75
2023-04-26T08:11:16.768Z,60.22
2023-04-26T08:13:44.256Z,59.94
2023-04-26T08:16:11.223Z,59.91
2023-04-26T08:18:38.056Z,59.52
2023-04-26T08:21:04.973Z,59.91
2023-04-26T08:23:38.753Z,60.73
2023-04-26T08:26:06.661Z,61.31
2023-04-26T08:28:33.502Z,61.09
2023-04-26T08:31:00.391Z,61.65
2023-04-26T08:33:27.224Z,61.43
2023-04-26T08:35:53.926Z,61.71
2023-04-26T08:38:22.805Z,61.54
2023-04-26T08:40:51.432Z,61.23
2023-04-26T08:43:18.229Z,61.17
2023-04-26T08:45:49.358Z,61.30
2023-04-26T08:48:18.412Z,61.76
2023-04-26T08:50:49.085Z,61.53
2023-04-26T08:53:19.855Z,61.06
2023-04-26T08:55:50.213Z,61.23
2023-04-26T08:58:20.262Z,60.86
2023-04-26T09:01:05.683Z,61.01
2023-04-26T09:04:03.506Z,60.10
2023-04-26T09:06:31.310Z,60.22
2023-04-26T09:08:59.163Z,60.92
2023-04-26T09:11:26.170Z,61.15
2023-04-26T09:13:53.167Z,60.74
2023-04-26T09:16:20.136Z,60.04
2023-04-26T09:18:57.285Z,60.75
2023-04-26T09:21:24.854Z,61.01
2023-04-26T09:24:04.476Z,61.24
2023-04-26T09:26:31.280Z,61.05
2023-04-26T09:29:20.987Z,60.81
2023-04-26T09:31:50.149Z,60.92
2023-04-26T09:34:17.066Z,61.19
2023-04-26T09:36:57.640Z,61.04
2023-04-26T09:39:37.269Z,61.28
2023-04-26T09:42:05.239Z,61.21
2023-04-26T09:44:32.444Z,61.15
2023-04-26T09:47:05.952Z,60.76
2023-04-26T09:49:46.801Z,61.39
2023-04-26T09:52:13.829Z,62.01
2023-04-26T09:54:54.504Z,62.05
2023-04-26T09:57:23.683Z,63.00
2023-04-26T09:59:54.353Z,63.44
2023-04-26T10:02:27.259Z,64.16
2023-04-26T10:04:56.209Z,64.39
2023-04-26T10:07:24.812Z,63.90
2023-04-26T10:09:51.696Z,64.19
2023-04-26T10:12:20.218Z,64.65
2023-04-26T10:14:47.986Z,64.31
2023-04-26T10:17:14.849Z,64.91
2023-04-26T10:19:46.800Z,65.43
2023-04-26T10:22:23.809Z,64.55
2023-04-26T10:24:51.668Z,64.09
2023-04-26T10:27:46.928Z,63.33
2023-04-26T10:30:15.314Z,62.67
2023-04-26T10:32:57.687Z,62.27
2023-04-26T10:35:30.626Z,61.78
2023-04-26T10:38:00.358Z,61.22
2023-04-26T10:40:32.124Z,61.01
2023-04-26T10:43:11.534Z,60.79
2023-04-26T10:45:40.161Z,60.54
2023-04-26T10:48:32.130Z,60.23
2023-04-26T10:51:02.331Z,60.32
2023-04-26T10:53:33.649Z,59.61
2023-04-26T10:56:00.705Z,60.10
2023-04-26T10:58:34.473Z,59.11
2023-04-26T11:01:18.441Z,58.52
2023-04-26T11:04:14.444Z,58.53
2023-04-26T11:06:55.585Z,58.57
2023-04-26T11:09:48.234Z,57.81
2023-04-26T11:12:16.604Z,57.70
2023-04-26T11:14:45.605Z,57.76
2023-04-26T11:17:13.233Z,57.34
2023-04-26T11:19:41.931Z,56.62
2023-04-26T11:22:08.926Z,57.06
2023-04-26T11:24:39.220Z,56.79
2023-04-26T11:27:10.225Z,56.63
2023-04-26T11:29:37.618Z,56.54
2023-04-26T11:32:05.246Z,56.74
2023-04-26T11:34:35.899Z,58.00
2023-04-26T11:37:04.929Z,58.54
2023-04-26T11:39:32.833Z,58.84
2023-04-26T11:42:10.794Z,58.14
2023-04-26T11:44:38.430Z,58.62
2023-04-26T11:47:06.773Z,58.52
2023-04-26T11:49:36.402Z,58.98
2023-04-26T11:52:07.353Z,58.99
2023-04-26T11:54:37.872Z,59.22
2023-04-26T11:57:18.426Z,58.81
2023-04-26T11:59:46.891Z,58.92
2023-04-26T12:02:14.355Z,59.17
2023-04-26T12:04:41.705Z,59.04
2023-04-26T12:07:09.457Z,58.37
2023-04-26T12:09:42.289Z,58.32
2023-04-26T12:12:09.215Z,58.95
2023-04-26T12:14:40.089Z,58.83
2023-04-26T12:17:09.684Z,58.83
2023-04-26T12:19:38.274Z,58.10
2023-04-26T12:22:08.810Z,58.39
2023-04-26T12:24:37.405Z,57.88
2023-04-26T12:27:08.545Z,58.20
2023-04-26T12:29:35.729Z,58.21
2023-04-26T12:32:03.246Z,57.93
2023-04-26T12:34:31.011Z,58.09
2023-04-26T12:36:57.940Z,58.26
2023-04-26T12:39:24.702Z,57.80
2023-04-26T12:41:51.568Z,58.26
2023-04-26T12:44:20.379Z,58.46
2023-04-26T12:46:48.393Z,58.41
2023-04-26T12:49:15.298Z,58.95
2023-04-26T12:51:42.055Z,58.04
2023-04-26T12:54:09.317Z,58.56
2023-04-26T12:56:40.758Z,58.38
2023-04-26T12:59:07.640Z,58.85
2023-04-26T13:01:34.595Z,59.68
2023-04-26T13:04:06.027Z,60.36
2023-04-26T13:06:33.637Z,60.57
2023-04-26T13:09:00.586Z,61.06
2023-04-26T13:11:27.440Z,60.48
2023-04-26T13:13:54.809Z,59.72
2023-04-26T13:16:21.957Z,60.04
2023-04-26T13:18:48.744Z,59.50
2023-04-26T13:21:17.582Z,59.13
2023-04-26T13:23:46.278Z,58.96
2023-04-26T13:26:14.948Z,58.60
2023-04-26T13:28:41.962Z,57.31
2023-04-26T13:31:08.987Z,57.78
2023-04-26T13:33:36.063Z,57.38
2023-04-26T13:36:02.890Z,56.22
2023-04-26T13:38:32.839Z,56.67
2023-04-26T13:41:02.803Z,57.15
2023-04-26T13:43:29.596Z,57.62
2023-04-26T13:45:56.874Z,58.32
2023-04-26T13:48:26.720Z,58.17
2023-04-26T13:50:53.635Z,58.19
2023-04-26T13:53:20.538Z,57.80
2023-04-26T13:55:47.193Z,57.74
2023-04-26T13:58:14.327Z,57.47
2023-04-26T14:00:41.947Z,56.70
2023-04-26T14:03:11.568Z,56.54
2023-04-26T14:05:38.594Z,55.85
2023-04-26T14:08:06.028Z,56.14
2023-04-26T14:10:35.760Z,55.34
2023-04-26T14:13:02.501Z,55.49
2023-04-26T14:15:29.277Z,55.68
2023-04-26T14:17:59.049Z,55.15
2023-04-26T14:20:25.917Z,55.37
2023-04-26T14:22:52.652Z,55.89
2023-04-26T14:25:19.506Z,55.79
2023-04-26T14:27:49.113Z,56.53
2023-04-26T14:30:16.641Z,55.24
2023-04-26T14:32:43.545Z,55.38
2023-04-26T14:35:10.591Z,55.39
2023-04-26T14:37:37.829Z,54.91
2023-04-26T14:40:06.416Z,55.06
2023-04-26T14:42:33.192Z,55.92
2023-04-26T14:45:00.555Z,56.33
2023-04-26T14:47:27.475Z,55.09
2023-04-26T14:49:54.308Z,55.79
2023-04-26T14:52:21.599Z,55.43
2023-04-26T14:54:48.359Z,55.38
2023-04-26T14:57:15.132Z,54.77
2023-04-26T14:59:42.321Z,55.98
2023-04-26T15:02:09.164Z,55.77
2023-04-26T15:04:38.126Z,55.42
2023-04-26T15:07:05.231Z,55.21
2023-04-26T15:09:33.328Z,55.07
2023-04-26T15:12:00.263Z,55.44
2023-04-26T15:14:27.210Z,55.60
2023-04-26T15:16:54.646Z,55.79
2023-04-26T15:19:21.938Z,56.10
2023-04-26T15:21:49.358Z,55.37
2023-04-26T15:24:16.327Z,55.73
2023-04-26T15:26:43.051Z,55.28
2023-04-26T15:29:09.783Z,55.56
2023-04-26T15:31:37.050Z,55.59
2023-04-26T15:34:03.902Z,55.36
2023-04-26T15:36:30.761Z,60.12
2023-04-26T15:38:57.680Z,56.09
2023-04-26T15:41:24.429Z,56.00
2023-04-26T15:43:57.045Z,57.05
2023-04-26T15:46:23.832Z,56.42
2023-04-26T15:48:50.570Z,58.31
2023-04-26T15:51:17.431Z,57.25
2023-04-26T15:53:44.266Z,57.35
2023-04-26T15:56:15.569Z,57.80
2023-04-26T15:58:47.758Z,57.49
2023-04-26T16:01:15.247Z,57.43
2023-04-26T16:03:45.574Z,56.78
2023-04-26T16:06:14.132Z,57.55
2023-04-26T16:08:41.136Z,57.80
2023-04-26T16:11:08.030Z,57.60
2023-04-26T16:13:34.888Z,57.72
2023-04-26T16:16:01.732Z,57.67
2023-04-26T16:18:28.549Z,57.28
2023-04-26T16:21:07.351Z,56.65
2023-04-26T16:23:34.217Z,56.42
2023-04-26T16:26:01.515Z,56.50
2023-04-26T16:28:28.386Z,56.21
2023-04-26T16:30:55.914Z,56.21
2023-04-26T16:33:23.388Z,55.55
2023-04-26T16:35:57.368Z,55.70
2023-04-26T16:38:24.248Z,55.08
2023-04-26T16:40:57.658Z,54.59
2023-04-26T16:43:31.999Z,55.16
2023-04-26T16:46:06.993Z,55.58
2023-04-26T16:48:35.506Z,56.14
2023-04-26T16:51:07.171Z,55.68
2023-04-26T16:53:35.296Z,56.65
2023-04-26T16:56:03.090Z,56.47
2023-04-26T16:58:30.057Z,55.85
2023-04-26T17:00:56.856Z,57.05
2023-04-26T17:03:24.735Z,56.70
2023-04-26T17:05:51.930Z,56.15
2023-04-26T17:08:19.890Z,56.23
2023-04-26T17:10:47.211Z,56.73
2023-04-26T17:13:14.915Z,57.34
2023-04-26T17:15:42.657Z,57.99
2023-04-26T17:18:10.147Z,58.29
2023-04-26T17:20:37.307Z,58.10
2023-04-26T17:23:04.419Z,58.35
2023-04-26T17:25:31.314Z,58.46
2023-04-26T17:27:58.396Z,58.51
2023-04-26T17:30:25.275Z,58.44
2023-04-26T17:32:52.078Z,58.78
2023-04-26T17:35:18.913Z,58.84
2023-04-26T17:37:50.427Z,59.08
2023-04-26T17:40:18.659Z,59.25
2023-04-26T17:42:46.524Z,59.06
2023-04-26T17:45:14.496Z,58.86
2023-04-26T17:47:42.918Z,59.11
2023-04-26T17:50:10.073Z,59.27
2023-04-26T17:52:37.519Z,59.30
2023-04-26T17:55:06.588Z,59.34
2023-04-26T17:57:33.304Z,59.56
2023-04-26T17:59:59.990Z,59.64
2023-04-26T18:02:26.934Z,59.99
2023-04-26T18:04:55.085Z,59.71
2023-04-26T18:07:21.992Z,59.97
2023-04-26T18:09:49.938Z,60.60
2023-04-26T18:12:16.677Z,60.25
2023-04-26T18:14:46.203Z,60.52
2023-04-26T18:17:13.966Z,60.72
2023-04-26T18:19:41.938Z,60.87
2023-04-26T18:22:08.824Z,61.30
2023-04-26T18:24:35.676Z,62.23
2023-04-26T18:27:02.759Z,62.31
2023-04-26T18:29:30.485Z,63.10
2023-04-26T18:31:57.386Z,63.34
2023-04-26T18:34:24.519Z,64.31
2023-04-26T18:36:51.489Z,65.30
2023-04-26T18:39:18.388Z,66.02
2023-04-26T18:41:45.442Z,66.47
2023-04-26T18:44:14.987Z,66.90
2023-04-26T18:46:43.147Z,67.01
2023-04-26T18:49:10.135Z,66.65
2023-04-26T18:51:39.808Z,66.34
2023-04-26T18:54:06.548Z,66.37
2023-04-26T18:56:33.303Z,66.28
2023-04-26T18:59:00.049Z,66.25
2023-04-26T19:01:29.182Z,66.31
2023-04-26T19:03:56.225Z,66.38
2023-04-26T19:06:22.997Z,67.03
2023-04-26T19:08:49.749Z,68.37
2023-04-26T19:11:16.587Z,68.81
2023-04-26T19:13:43.429Z,69.32
2023-04-26T19:16:11.368Z,69.70
2023-04-26T19:18:40.472Z,70.87
2023-04-26T19:21:08.180Z,70.49
2023-04-26T19:23:35.827Z,70.90
2023-04-26T19:26:12.355Z,70.87
2023-04-26T19:28:39.305Z,71.00
2023-04-26T19:31:06.389Z,71.84
2023-04-26T19:33:34.807Z,71.97
2023-04-26T19:36:01.601Z,71.75
2023-04-26T19:38:28.830Z,72.00
2023-04-26T19:40:55.745Z,72.09
2023-04-26T19:43:22.611Z,71.57
2023-04-26T19:45:49.464Z,71.53
2023-04-26T19:48:16.299Z,71.41
2023-04-26T19:50:47.614Z,71.34
2023-04-26T19:53:19.126Z,70.74
2023-04-26T19:55:46.081Z,70.56
2023-04-26T19:58:12.915Z,70.34
2023-04-26T20:00:40.557Z,69.64
2023-04-26T20:03:07.761Z,69.77
2023-04-26T20:05:34.895Z,70.61
2023-04-26T20:08:02.010Z,70.32
2023-04-26T20:10:32.467Z,70.40
2023-04-26T20:13:00.694Z,70.02
2023-04-26T20:15:27.977Z,69.16
2023-04-26T20:17:55.159Z,69.08
2023-04-26T20:20:22.151Z,68.96
2023-04-26T20:22:48.983Z,69.02
2023-04-26T20:25:15.937Z,69.02
2023-04-26T20:27:42.842Z,69.39
2023-04-26T20:30:10.104Z,69.74
2023-04-26T20:32:36.939Z,70.34
2023-04-26T20:35:04.811Z,70.52
2023-04-26T20:37:31.950Z,70.85
2023-04-26T20:39:58.814Z,70.90
2023-04-26T20:42:25.941Z,71.00
2023-04-26T20:44:52.763Z,70.97
2023-04-26T20:47:19.538Z,70.99
2023-04-26T20:49:46.315Z,70.88
2023-04-26T20:52:13.129Z,70.73
2023-04-26T20:54:40.044Z,70.48
2023-04-26T20:57:06.948Z,70.25
2023-04-26T20:59:33.773Z,70.23
2023-04-26T21:02:01.389Z,69.86
2023-04-26T21:04:28.668Z,70.06
2023-04-26T21:06:55.640Z,69.73
2023-04-26T21:09:22.484Z,69.41
2023-04-26T21:11:52.452Z,69.03
2023-04-26T21:14:19.185Z,69.19
2023-04-26T21:16:48.105Z,68.97
2023-04-26T21:19:14.931Z,68.95
2023-04-26T21:21:41.746Z,69.05
2023-04-26T21:24:08.673Z,69.07
2023-04-26T21:26:35.724Z,69.15
2023-04-26T21:29:02.501Z,69.00
2023-04-26T21:31:29.476Z,68.87
2023-04-26T21:33:56.483Z,68.76
2023-04-26T21:36:23.193Z,68.97
2023-04-26T21:38:52.678Z,68.92
2023-04-26T21:41:19.905Z,68.96
2023-04-26T21:43:46.694Z,68.74
2023-04-26T21:46:13.594Z,68.82
2023-04-26T21:48:40.476Z,68.88
2023-04-26T21:51:09.876Z,68.88
2023-04-26T21:53:36.626Z,68.84
2023-04-26T21:56:05.709Z,68.95
2023-04-26T21:58:32.552Z,69.04
2023-04-26T22:01:15.264Z,69.04
2023-04-26T22:03:42.700Z,69.07
2023-04-26T22:06:10.140Z,69.12
2023-04-26T22:08:37.022Z,69.13
2023-04-26T22:11:03.883Z,69.03
2023-04-26T22:13:31.456Z,69.27
2023-04-26T22:16:01.108Z,69.33
2023-04-26T22:18:32.484Z,69.55
2023-04-26T22:20:59.199Z,69.69
2023-04-26T22:23:25.958Z,69.70
2023-04-26T22:25:53.857Z,69.69
2023-04-26T22:28:20.856Z,69.74
2023-04-26T22:30:48.387Z,69.75
2023-04-26T22:33:15.214Z,70.04
2023-04-26T22:35:42.085Z,70.18
2023-04-26T22:38:09.981Z,69.96
2023-04-26T22:40:37.234Z,70.14
2023-04-26T22:43:04.026Z,70.21
2023-04-26T22:45:30.992Z,70.25
2023-04-26T22:47:57.822Z,70.33
2023-04-26T22:50:24.909Z,70.30
2023-04-26T22:52:51.652Z,70.27
2023-04-26T22:55:18.670Z,70.21
2023-04-26T22:57:46.674Z,70.13
2023-04-26T23:00:16.969Z,70.04
2023-04-26T23:02:44.000Z,69.69
2023-04-26T23:05:13.775Z,69.84
2023-04-26T23:07:40.741Z,69.69
2023-04-26T23:10:11.103Z,69.77
2023-04-26T23:12:38.253Z,69.76
2023-04-26T23:15:06.088Z,69.74
2023-04-26T23:17:34.178Z,69.75
2023-04-26T23:20:01.357Z,69.71
2023-04-26T23:22:28.306Z,69.65
2023-04-26T23:24:55.514Z,69.54
2023-04-26T23:27:24.369Z,69.52
2023-04-26T23:29:51.729Z,69.41
2023-04-26T23:32:20.625Z,69.32
2023-04-26T23:34:47.469Z,69.37
2023-04-26T23:37:14.339Z,69.30
2023-04-26T23:39:41.102Z,69.26
2023-04-26T23:42:07.938Z,69.12
2023-04-26T23:44:34.688Z,69.06
2023-04-26T23:47:01.654Z,68.97
2023-04-26T23:49:28.562Z,68.68
2023-04-26T23:51:55.467Z,68.88
2023-04-26T23:54:22.335Z,68.76
2023-04-26T23:56:49.062Z,68.68
2023-04-26T23:59:16.863Z,68.64
